»·PEaware :: ASA1 KSEA-KJAC

ASA1 :: KSEA-KJAC

FLIGHT INFORMATION

Flight Status: Arrived
Operator:
Alaska Airlines
More flights by this operator :: More flights under this callsign
Pilot: Anonymous 14085 (14085)
Aircraft: BOEING 737-800
(B738)
More flights by this aircraft type
Origin: KSEA Seattle-Tacoma Intl
United States
Destination: KJAC Jackson Hole
United States
More flights between these airports :: More routes between these airports
Route: +SEATL5 SEA NORMY J90 MWH LKT J52 DBS
File this flight plan on PilotEdge
Remarks:
Altitude:
(Current/Filed)
37,000ft
Speed:
(Current/Filed)
480kts
Departed: 13-May-17 11:13 AM
Arrived: 13-May-17 12:49 PM
Distance/Time
Traveled:
538nm/1:36
Distance/Time
To Go:
Arrived

Flight Plot

Page will automatically refresh every two minutes.

Flight plan parsing failed; only flown route is shown


Map Options




Map Legend


Flown Route
Filed Route
Departure Airport
Arrival Airport
Navaid (VOR, NDB)
Fix

Horizontal Profiles

Position Reports

Time Latitude Longitude Heading Altitude Ground
Speed
13-May-17 10:40 47.442902 -122.303407 137 442ft 0kts
13-May-17 10:41 47.442902 -122.303407 137 442ft 0kts
13-May-17 10:42 47.442902 -122.303407 137 442ft 0kts
13-May-17 10:43 47.442902 -122.303407 137 442ft 0kts
13-May-17 10:44 47.442902 -122.303407 137 442ft 0kts
13-May-17 10:45 47.442902 -122.303407 137 442ft 0kts
13-May-17 10:46 47.442902 -122.303407 137 442ft 0kts
13-May-17 10:47 47.442902 -122.303407 137 442ft 0kts
13-May-17 10:48 47.442902 -122.303407 137 442ft 0kts
13-May-17 10:49 47.442902 -122.303407 137 442ft 0kts
13-May-17 10:50 47.442902 -122.303407 137 442ft 0kts
13-May-17 10:51 47.442902 -122.303407 137 442ft 0kts
13-May-17 10:52 47.442902 -122.303407 137 442ft 0kts
13-May-17 10:53 47.442902 -122.303407 137 442ft 0kts
13-May-17 10:54 47.442902 -122.303407 137 442ft 0kts
13-May-17 10:55 47.442902 -122.303407 137 442ft 0kts
13-May-17 10:56 47.442902 -122.303407 137 442ft 0kts
13-May-17 10:57 47.442902 -122.303407 137 442ft 0kts
13-May-17 10:58 47.442902 -122.303407 137 442ft 0kts
13-May-17 10:59 47.443250 -122.303883 137 442ft 0kts
13-May-17 11:00 47.443250 -122.303883 137 442ft 0kts
13-May-17 11:01 47.443250 -122.303883 137 442ft 0kts
13-May-17 11:02 47.443250 -122.303883 137 442ft 0kts
13-May-17 11:03 47.443145 -122.303852 194 442ft 0kts
13-May-17 11:04 47.443061 -122.304044 270 442ft 5kts
13-May-17 11:05 47.443257 -122.304602 298 442ft 0kts
13-May-17 11:06 47.443315 -122.304796 292 442ft 3kts
13-May-17 11:07 47.446511 -122.306319 0 442ft 18kts
13-May-17 11:08 47.451671 -122.305039 3 442ft 18kts
13-May-17 11:09 47.458798 -122.304972 0 442ft 23kts
13-May-17 11:10 47.461074 -122.304938 0 442ft 4kts
13-May-17 11:11 47.463341 -122.305743 324 442ft 6kts
13-May-17 11:12 47.463412 -122.305824 320 442ft 0kts
13-May-17 11:13 47.463425 -122.307771 177 442ft 0kts
13-May-17 11:14 47.463425 -122.307771 177 442ft 0kts
13-May-17 11:15 47.457415 -122.307812 180 442ft 127kts
13-May-17 11:16 47.412314 -122.302432 175 3387ft 179kts
13-May-17 11:17 47.361602 -122.279128 137 5301ft 246kts
13-May-17 11:18 47.306599 -122.192613 132 7941ft 303kts
13-May-17 11:19 47.290958 -122.073559 95 11425ft 333kts
13-May-17 11:20 47.311392 -121.927946 52 14677ft 416kts
13-May-17 11:21 47.388588 -121.792517 48 17696ft 447kts
13-May-17 11:22 47.426731 -121.618119 90 20680ft 469kts
13-May-17 11:23 47.456969 -121.435538 55 22966ft 455kts
13-May-17 11:24 47.529600 -121.278194 55 25208ft 476kts
13-May-17 11:25 47.605605 -121.112795 55 27663ft 496kts
13-May-17 11:26 47.663538 -120.927629 87 29898ft 510kts
13-May-17 11:27 47.630130 -120.733936 119 33052ft 476kts
13-May-17 11:28 47.579200 -120.558639 116 35432ft 457kts
13-May-17 11:29 47.529844 -120.390517 112 36814ft 419kts
13-May-17 11:30 47.485411 -120.238140 113 36982ft 420kts
13-May-17 11:31 47.438507 -120.078254 113 36967ft 425kts
13-May-17 11:32 47.391375 -119.918648 113 36957ft 425kts
13-May-17 11:33 47.344176 -119.759819 113 36937ft 425kts
13-May-17 11:34 47.296597 -119.600799 113 36936ft 425kts
13-May-17 11:35 47.248913 -119.442404 114 36934ft 424kts
13-May-17 11:36 47.199327 -119.287227 118 36973ft 426kts
13-May-17 11:37 47.142021 -119.136203 119 36966ft 424kts
13-May-17 11:38 47.084523 -118.986224 119 36964ft 424kts
13-May-17 11:39 47.026600 -118.836005 119 36963ft 424kts
13-May-17 11:40 46.968763 -118.686821 119 36961ft 424kts
13-May-17 11:41 46.910628 -118.537718 119 36959ft 423kts
13-May-17 11:42 46.852555 -118.389577 119 36964ft 423kts
13-May-17 11:43 46.795612 -118.245095 120 36945ft 423kts
13-May-17 11:44 46.737788 -118.099124 120 38054ft 410kts
13-May-17 11:45 46.681569 -117.957991 120 39981ft 401kts
13-May-17 11:46 46.624929 -117.816573 120 40944ft 409kts
13-May-17 11:47 46.565616 -117.669231 120 41002ft 437kts
13-May-17 11:48 46.503970 -117.516895 120 40992ft 438kts
13-May-17 11:49 46.442102 -117.364879 120 40990ft 439kts
13-May-17 11:50 46.380535 -117.214428 121 40994ft 439kts
13-May-17 11:51 46.318229 -117.062994 121 40993ft 439kts
13-May-17 11:52 46.256114 -116.912852 121 40992ft 439kts
13-May-17 11:53 46.193467 -116.762244 121 40991ft 438kts
13-May-17 11:54 46.130763 -116.612301 121 40990ft 438kts
13-May-17 11:55 46.067905 -116.462820 121 40962ft 438kts
13-May-17 11:56 46.005171 -116.314433 122 40966ft 438kts
13-May-17 11:57 45.941949 -116.165675 122 40964ft 438kts
13-May-17 11:58 45.879031 -116.018417 122 40969ft 438kts
13-May-17 11:59 45.815344 -115.870145 122 40995ft 438kts
13-May-17 12:00 45.751545 -115.722397 122 40993ft 438kts
13-May-17 12:01 45.687568 -115.575013 122 40993ft 438kts
13-May-17 12:02 45.623310 -115.427757 122 40992ft 438kts
13-May-17 12:03 45.570207 -115.306658 123 40996ft 438kts
13-May-17 12:04 45.494825 -115.135593 123 40995ft 438kts
13-May-17 12:05 45.440941 -115.013973 123 40994ft 438kts
13-May-17 12:06 45.365185 -114.843859 123 40945ft 438kts
13-May-17 12:07 45.311354 -114.723589 123 40923ft 429kts
13-May-17 12:08 45.249089 -114.585125 123 40944ft 423kts
13-May-17 12:09 45.175804 -114.423001 123 40936ft 421kts
13-May-17 12:10 45.123770 -114.308468 123 40939ft 421kts
13-May-17 12:11 45.050012 -114.146868 123 40938ft 420kts
13-May-17 12:12 44.985552 -114.010091 124 40937ft 420kts
13-May-17 12:13 44.932832 -113.901003 124 40936ft 420kts
13-May-17 12:14 44.868116 -113.767709 124 40941ft 421kts
13-May-17 12:15 44.802118 -113.632418 124 40940ft 420kts
13-May-17 12:45 43.831150 -110.648907 174 10160ft 198kts
13-May-17 12:46 43.781294 -110.653852 198 9608ft 163kts
13-May-17 12:47 43.737124 -110.674621 200 8981ft 166kts
13-May-17 12:48 43.696910 -110.694156 200 8152ft 140kts
13-May-17 12:49 43.659810 -110.712242 200 7404ft 142kts
13-May-17 12:50 43.623864 -110.729667 200 6685ft 135kts
13-May-17 12:51 43.603804 -110.738140 62 6460ft 15kts
13-May-17 12:52 43.604663 -110.736603 105 6460ft 3kts
13-May-17 12:53 43.604648 -110.736530 106 6460ft 0kts
13-May-17 12:54 43.604648 -110.736530 106 6460ft 0kts
13-May-17 12:55 43.604648 -110.736530 106 6460ft 0kts
13-May-17 12:56 43.604648 -110.736530 106 6460ft 0kts
13-May-17 12:57 43.604648 -110.736530 106 6460ft 0kts
13-May-17 12:58 43.604648 -110.736530 106 6460ft 0kts
13-May-17 12:59 43.604648 -110.736530 106 6460ft 0kts
13-May-17 13:00 43.604648 -110.736530 106 6460ft 0kts
13-May-17 13:01 43.604648 -110.736530 106 6460ft 0kts
13-May-17 13:02 43.604648 -110.736530 106 6460ft 0kts
13-May-17 13:03 43.604648 -110.736530 106 6460ft 0kts
13-May-17 13:04 43.604648 -110.736530 106 6460ft 0kts
13-May-17 13:05 43.604648 -110.736530 106 6460ft 0kts

Navigation Log

Ident Type
Flight plan parsing failed, navigation log unavailable